sensor_id;sensor_type;location;lat;lon;timestamp;pressure;altitude;pressure_sealevel;temperature;humidity
66547;BME280;53400;50.364;14.874;2023-07-31T00:00:13;98482.31;;;13.48;100.00
66547;BME280;53400;50.364;14.874;2023-07-31T00:02:59;98480.66;;;13.37;100.00
66547;BME280;53400;50.364;14.874;2023-07-31T00:05:25;98483.34;;;13.32;100.00
66547;BME280;53400;50.364;14.874;2023-07-31T00:07:51;98477.34;;;13.09;100.00
66547;BME280;53400;50.364;14.874;2023-07-31T00:10:17;98471.72;;;13.21;100.00
66547;BME280;53400;50.364;14.874;2023-07-31T00:12:45;98484.72;;;13.40;100.00
66547;BME280;53400;50.364;14.874;2023-07-31T00:15:13;98476.91;;;13.43;100.00
66547;BME280;53400;50.364;14.874;2023-07-31T00:17:39;98485.25;;;13.37;100.00
66547;BME280;53400;50.364;14.874;2023-07-31T00:20:05;98485.97;;;13.22;100.00
66547;BME280;53400;50.364;14.874;2023-07-31T00:22:31;98477.16;;;13.31;100.00
66547;BME280;53400;50.364;14.874;2023-07-31T00:24:57;98484.06;;;13.17;100.00
66547;BME280;53400;50.364;14.874;2023-07-31T00:27:23;98477.69;;;13.28;100.00
66547;BME280;53400;50.364;14.874;2023-07-31T00:29:49;98480.06;;;13.20;100.00
66547;BME280;53400;50.364;14.874;2023-07-31T00:32:16;98480.84;;;13.10;100.00
66547;BME280;53400;50.364;14.874;2023-07-31T00:34:43;98473.56;;;13.11;100.00
66547;BME280;53400;50.364;14.874;2023-07-31T00:37:08;98478.16;;;13.10;100.00
66547;BME280;53400;50.364;14.874;2023-07-31T00:39:35;98470.06;;;13.00;100.00
66547;BME280;53400;50.364;14.874;2023-07-31T00:42:01;98479.72;;;13.01;100.00
66547;BME280;53400;50.364;14.874;2023-07-31T00:44:27;98477.28;;;12.99;100.00
66547;BME280;53400;50.364;14.874;2023-07-31T00:46:54;98477.28;;;12.99;100.00
66547;BME280;53400;50.364;14.874;2023-07-31T00:49:23;98468.97;;;13.01;100.00
66547;BME280;53400;50.364;14.874;2023-07-31T00:51:49;98474.94;;;13.13;100.00
66547;BME280;53400;50.364;14.874;2023-07-31T00:54:15;98482.69;;;13.04;100.00
66547;BME280;53400;50.364;14.874;2023-07-31T00:56:41;98476.78;;;13.02;100.00
66547;BME280;53400;50.364;14.874;2023-07-31T00:59:09;98476.53;;;13.09;100.00
66547;BME280;53400;50.364;14.874;2023-07-31T01:01:35;98491.44;;;12.74;100.00
66547;BME280;53400;50.364;14.874;2023-07-31T01:04:01;98482.13;;;12.92;100.00
66547;BME280;53400;50.364;14.874;2023-07-31T01:06:33;98491.59;;;13.10;100.00
66547;BME280;53400;50.364;14.874;2023-07-31T01:09:03;98484.88;;;13.13;100.00
66547;BME280;53400;50.364;14.874;2023-07-31T01:11:31;98484.06;;;13.17;100.00
66547;BME280;53400;50.364;14.874;2023-07-31T01:13:59;98483.28;;;13.12;100.00
66547;BME280;53400;50.364;14.874;2023-07-31T01:16:25;98481.34;;;13.02;100.00
66547;BME280;53400;50.364;14.874;2023-07-31T01:18:52;98478.66;;;13.02;100.00
66547;BME280;53400;50.364;14.874;2023-07-31T01:21:45;98470.09;;;13.15;100.00
66547;BME280;53400;50.364;14.874;2023-07-31T01:24:24;98474.88;;;12.98;100.00
66547;BME280;53400;50.364;14.874;2023-07-31T01:26:56;98468.38;;;12.83;100.00
66547;BME280;53400;50.364;14.874;2023-07-31T01:29:29;98474.34;;;12.91;100.00
66547;BME280;53400;50.364;14.874;2023-07-31T01:32:01;98465.88;;;12.61;100.00
66547;BME280;53400;50.364;14.874;2023-07-31T01:34:28;98468.38;;;12.26;100.00
66547;BME280;53400;50.364;14.874;2023-07-31T01:36:55;98467.31;;;12.27;100.00
66547;BME280;53400;50.364;14.874;2023-07-31T01:39:21;98458.94;;;12.18;100.00
66547;BME280;53400;50.364;14.874;2023-07-31T01:41:47;98462.97;;;12.21;100.00
66547;BME280;53400;50.364;14.874;2023-07-31T01:44:14;98455.22;;;12.29;100.00
66547;BME280;53400;50.364;14.874;2023-07-31T01:46:40;98455.00;;;12.36;100.00
66547;BME280;53400;50.364;14.874;2023-07-31T01:49:06;98454.28;;;12.56;100.00
66547;BME280;53400;50.364;14.874;2023-07-31T01:51:32;98460.25;;;12.68;100.00
66547;BME280;53400;50.364;14.874;2023-07-31T01:54:00;98459.47;;;12.73;100.00
66547;BME280;53400;50.364;14.874;2023-07-31T01:56:26;98454.91;;;12.73;100.00
66547;BME280;53400;50.364;14.874;2023-07-31T01:58:52;98448.22;;;12.81;100.00
66547;BME280;53400;50.364;14.874;2023-07-31T02:01:19;98450.63;;;12.77;100.00
66547;BME280;53400;50.364;14.874;2023-07-31T02:03:46;98451.94;;;12.75;100.00
66547;BME280;53400;50.364;14.874;2023-07-31T02:06:11;98454.16;;;12.88;100.00
66547;BME280;53400;50.364;14.874;2023-07-31T02:08:37;98452.50;;;12.77;100.00
66547;BME280;53400;50.364;14.874;2023-07-31T02:11:03;98444.72;;;12.80;100.00
66547;BME280;53400;50.364;14.874;2023-07-31T02:13:29;98448.78;;;12.93;100.00
66547;BME280;53400;50.364;14.874;2023-07-31T02:15:55;98453.84;;;12.74;100.00
66547;BME280;53400;50.364;14.874;2023-07-31T02:18:22;98458.38;;;12.69;100.00
66547;BME280;53400;50.364;14.874;2023-07-31T02:20:49;98455.22;;;12.82;100.00
66547;BME280;53400;50.364;14.874;2023-07-31T02:23:15;98464.09;;;12.93;100.00
66547;BME280;53400;50.364;14.874;2023-07-31T02:25:41;98457.66;;;12.89;100.00
66547;BME280;53400;50.364;14.874;2023-07-31T02:28:07;98450.63;;;12.77;100.00
66547;BME280;53400;50.364;14.874;2023-07-31T02:30:33;98455.03;;;12.41;100.00
66547;BME280;53400;50.364;14.874;2023-07-31T02:32:59;98449.38;;;12.37;100.00
66547;BME280;53400;50.364;14.874;2023-07-31T02:35:26;98449.31;;;12.27;100.00
66547;BME280;53400;50.364;14.874;2023-07-31T02:37:52;98450.72;;;12.40;100.00
66547;BME280;53400;50.364;14.874;2023-07-31T02:40:19;98450.56;;;12.57;100.00
66547;BME280;53400;50.364;14.874;2023-07-31T02:42:45;98448.94;;;12.61;100.00
66547;BME280;53400;50.364;14.874;2023-07-31T02:45:11;98451.56;;;12.46;100.00
66547;BME280;53400;50.364;14.874;2023-07-31T02:47:37;98449.66;;;12.36;100.00
66547;BME280;53400;50.364;14.874;2023-07-31T02:50:03;98448.19;;;12.23;100.00
66547;BME280;53400;50.364;14.874;2023-07-31T02:52:31;98447.72;;;12.31;100.00
66547;BME280;53400;50.364;14.874;2023-07-31T02:54:58;98447.19;;;12.34;100.00
66547;BME280;53400;50.364;14.874;2023-07-31T02:57:24;98443.63;;;12.19;100.00
66547;BME280;53400;50.364;14.874;2023-07-31T02:59:50;98452.44;;;12.14;100.00
66547;BME280;53400;50.364;14.874;2023-07-31T03:02:16;98442.47;;;12.04;100.00
66547;BME280;53400;50.364;14.874;2023-07-31T03:04:41;98440.53;;;11.94;100.00
66547;BME280;53400;50.364;14.874;2023-07-31T03:07:08;98443.25;;;12.00;100.00
66547;BME280;53400;50.364;14.874;2023-07-31T03:09:35;98435.78;;;12.07;100.00
66547;BME280;53400;50.364;14.874;2023-07-31T03:12:01;98443.59;;;12.13;100.00
66547;BME280;53400;50.364;14.874;2023-07-31T03:14:27;98439.72;;;12.36;100.00
66547;BME280;53400;50.364;14.874;2023-07-31T03:16:53;98441.91;;;12.45;100.00
66547;BME280;53400;50.364;14.874;2023-07-31T03:19:19;98441.03;;;12.34;100.00
66547;BME280;53400;50.364;14.874;2023-07-31T03:21:45;98442.38;;;12.36;100.00
66547;BME280;53400;50.364;14.874;2023-07-31T03:24:11;98441.78;;;12.29;100.00
66547;BME280;53400;50.364;14.874;2023-07-31T03:26:39;98437.03;;;12.42;100.00
66547;BME280;53400;50.364;14.874;2023-07-31T03:29:07;98435.38;;;12.35;100.00
66547;BME280;53400;50.364;14.874;2023-07-31T03:31:33;98434.69;;;12.55;100.00
66547;BME280;53400;50.364;14.874;2023-07-31T03:33:59;98439.22;;;12.45;100.00
66547;BME280;53400;50.364;14.874;2023-07-31T03:36:25;98442.44;;;12.47;100.00
66547;BME280;53400;50.364;14.874;2023-07-31T03:38:51;98441.66;;;12.56;100.00
66547;BME280;53400;50.364;14.874;2023-07-31T03:41:17;98440.91;;;12.66;100.00
66547;BME280;53400;50.364;14.874;2023-07-31T03:43:45;98448.69;;;12.68;100.00
66547;BME280;53400;50.364;14.874;2023-07-31T03:46:12;98445.78;;;12.79;100.00
66547;BME280;53400;50.364;14.874;2023-07-31T03:48:37;98441.66;;;12.51;100.00
66547;BME280;53400;50.364;14.874;2023-07-31T03:51:03;98443.84;;;12.65;100.00
66547;BME280;53400;50.364;14.874;2023-07-31T03:53:29;98446.97;;;12.36;100.00
66547;BME280;53400;50.364;14.874;2023-07-31T03:55:55;98448.00;;;12.30;100.00
66547;BME280;53400;50.364;14.874;2023-07-31T03:58:21;98446.59;;;12.22;100.00
66547;BME280;53400;50.364;14.874;2023-07-31T04:00:49;98448.28;;;12.38;100.00
66547;BME280;53400;50.364;14.874;2023-07-31T04:03:14;98447.53;;;12.43;100.00
66547;BME280;53400;50.364;14.874;2023-07-31T04:05:40;98454.47;;;12.34;100.00
66547;BME280;53400;50.364;14.874;2023-07-31T04:08:06;98447.75;;;12.42;100.00
66547;BME280;53400;50.364;14.874;2023-07-31T04:10:32;98455.63;;;12.53;100.00
66547;BME280;53400;50.364;14.874;2023-07-31T04:12:59;98456.44;;;12.54;100.00
66547;BME280;53400;50.364;14.874;2023-07-31T04:15:25;98452.97;;;12.58;100.00
66547;BME280;53400;50.364;14.874;2023-07-31T04:17:52;98447.09;;;12.72;100.00
66547;BME280;53400;50.364;14.874;2023-07-31T04:20:18;98458.22;;;12.91;100.00
66547;BME280;53400;50.364;14.874;2023-07-31T04:22:44;98452.84;;;13.01;100.00
66547;BME280;53400;50.364;14.874;2023-07-31T04:25:10;98449.38;;;13.11;100.00
66547;BME280;53400;50.364;14.874;2023-07-31T04:27:35;98452.69;;;13.38;100.00
66547;BME280;53400;50.364;14.874;2023-07-31T04:30:02;98455.94;;;13.56;100.00
66547;BME280;53400;50.364;14.874;2023-07-31T04:32:28;98456.19;;;13.59;100.00
66547;BME280;53400;50.364;14.874;2023-07-31T04:34:56;98448.66;;;13.30;100.00
66547;BME280;53400;50.364;14.874;2023-07-31T04:37:22;98441.56;;;13.04;100.00
66547;BME280;53400;50.364;14.874;2023-07-31T04:39:48;98440.97;;;12.81;100.00
66547;BME280;53400;50.364;14.874;2023-07-31T04:42:14;98445.53;;;12.81;100.00
66547;BME280;53400;50.364;14.874;2023-07-31T04:44:40;98442.56;;;12.72;100.00
66547;BME280;53400;50.364;14.874;2023-07-31T04:47:06;98442.06;;;12.85;100.00
66547;BME280;53400;50.364;14.874;2023-07-31T04:49:32;98444.69;;;12.70;100.00
66547;BME280;53400;50.364;14.874;2023-07-31T04:51:59;98437.50;;;12.96;100.00
66547;BME280;53400;50.364;14.874;2023-07-31T04:54:25;98440.84;;;13.34;100.00
66547;BME280;53400;50.364;14.874;2023-07-31T04:56:51;98447.59;;;13.47;100.00
66547;BME280;53400;50.364;14.874;2023-07-31T04:59:18;98442.75;;;13.69;100.00
66547;BME280;53400;50.364;14.874;2023-07-31T05:01:44;98444.38;;;13.70;100.00
66547;BME280;53400;50.364;14.874;2023-07-31T05:04:12;98444.88;;;13.42;100.00
66547;BME280;53400;50.364;14.874;2023-07-31T05:06:38;98446.19;;;13.24;100.00
66547;BME280;53400;50.364;14.874;2023-07-31T05:09:06;98448.25;;;12.96;100.00
66547;BME280;53400;50.364;14.874;2023-07-31T05:11:32;98444.88;;;13.26;100.00
66547;BME280;53400;50.364;14.874;2023-07-31T05:13:58;98448.38;;;13.47;100.00
66547;BME280;53400;50.364;14.874;2023-07-31T05:16:23;98446.25;;;13.39;100.00
66547;BME280;53400;50.364;14.874;2023-07-31T05:18:49;98441.41;;;13.57;100.00
66547;BME280;53400;50.364;14.874;2023-07-31T05:21:15;98440.34;;;13.73;100.00
66547;BME280;53400;50.364;14.874;2023-07-31T05:23:41;98455.41;;;13.69;100.00
66547;BME280;53400;50.364;14.874;2023-07-31T05:26:08;98437.34;;;13.95;100.00
66547;BME280;53400;50.364;14.874;2023-07-31T05:28:37;98443.56;;;13.75;100.00
66547;BME280;53400;50.364;14.874;2023-07-31T05:31:04;98448.66;;;13.56;100.00
66547;BME280;53400;50.364;14.874;2023-07-31T05:33:31;98450.00;;;13.69;100.00
66547;BME280;53400;50.364;14.874;2023-07-31T05:35:57;98443.81;;;13.99;100.00
66547;BME280;53400;50.364;14.874;2023-07-31T05:38:23;98453.16;;;14.27;100.00
66547;BME280;53400;50.364;14.874;2023-07-31T05:40:49;98451.00;;;14.55;100.00
66547;BME280;53400;50.364;14.874;2023-07-31T05:43:16;98450.75;;;15.06;100.00
66547;BME280;53400;50.364;14.874;2023-07-31T05:45:42;98443.41;;;15.22;100.00
66547;BME280;53400;50.364;14.874;2023-07-31T05:48:09;98442.44;;;14.97;100.00
66547;BME280;53400;50.364;14.874;2023-07-31T05:50:34;98447.22;;;15.16;100.00
66547;BME280;53400;50.364;14.874;2023-07-31T05:53:01;98451.31;;;15.03;100.00
66547;BME280;53400;50.364;14.874;2023-07-31T05:55:27;98454.69;;;14.74;100.00
66547;BME280;53400;50.364;14.874;2023-07-31T05:57:54;98452.16;;;14.93;100.00
66547;BME280;53400;50.364;14.874;2023-07-31T06:00:21;98448.13;;;14.90;100.00
66547;BME280;53400;50.364;14.874;2023-07-31T06:02:48;98444.38;;;14.86;100.00
66547;BME280;53400;50.364;14.874;2023-07-31T06:05:13;98439.59;;;15.28;100.00
66547;BME280;53400;50.364;14.874;2023-07-31T06:07:40;98434.91;;;15.38;99.82
66547;BME280;53400;50.364;14.874;2023-07-31T06:10:07;98432.06;;;15.59;99.00
66547;BME280;53400;50.364;14.874;2023-07-31T06:12:34;98436.00;;;15.77;97.66
66547;BME280;53400;50.364;14.874;2023-07-31T06:15:00;98421.31;;;15.49;96.62
66547;BME280;53400;50.364;14.874;2023-07-31T06:17:28;98426.66;;;15.59;98.59
66547;BME280;53400;50.364;14.874;2023-07-31T06:19:54;98418.25;;;15.71;99.51
66547;BME280;53400;50.364;14.874;2023-07-31T06:22:20;98414.84;;;15.89;97.57
66547;BME280;53400;50.364;14.874;2023-07-31T06:24:46;98417.56;;;16.13;97.40
66547;BME280;53400;50.364;14.874;2023-07-31T06:27:12;98407.16;;;16.01;96.51
66547;BME280;53400;50.364;14.874;2023-07-31T06:29:38;98415.44;;;16.34;96.38
66547;BME280;53400;50.364;14.874;2023-07-31T06:32:04;98411.97;;;16.77;92.96
66547;BME280;53400;50.364;14.874;2023-07-31T06:34:32;98408.28;;;17.29;95.37
66547;BME280;53400;50.364;14.874;2023-07-31T06:36:58;98414.06;;;17.41;91.61
66547;BME280;53400;50.364;14.874;2023-07-31T06:39:24;98409.59;;;17.64;92.25
66547;BME280;53400;50.364;14.874;2023-07-31T06:41:50;98417.00;;;17.59;88.68
66547;BME280;53400;50.364;14.874;2023-07-31T06:44:16;98423.25;;;17.40;92.66
66547;BME280;53400;50.364;14.874;2023-07-31T06:46:42;98413.75;;;17.24;91.74
66547;BME280;53400;50.364;14.874;2023-07-31T06:49:08;98414.28;;;17.26;90.29
66547;BME280;53400;50.364;14.874;2023-07-31T06:51:35;98412.97;;;17.24;89.15
66547;BME280;53400;50.364;14.874;2023-07-31T06:54:03;98416.75;;;17.04;90.13
66547;BME280;53400;50.364;14.874;2023-07-31T06:56:29;98416.31;;;16.96;89.43
66547;BME280;53400;50.364;14.874;2023-07-31T06:58:55;98418.06;;;17.06;88.90
66547;BME280;53400;50.364;14.874;2023-07-31T07:01:21;98421.50;;;17.12;90.49
66547;BME280;53400;50.364;14.874;2023-07-31T07:03:47;98415.88;;;16.89;92.10
66547;BME280;53400;50.364;14.874;2023-07-31T07:06:16;98414.00;;;16.66;92.00
66547;BME280;53400;50.364;14.874;2023-07-31T07:08:43;98423.41;;;16.92;92.39
66547;BME280;53400;50.364;14.874;2023-07-31T07:11:09;98417.28;;;17.06;92.40
66547;BME280;53400;50.364;14.874;2023-07-31T07:13:35;98415.81;;;17.13;92.10
66547;BME280;53400;50.364;14.874;2023-07-31T07:16:04;98419.94;;;17.43;89.46
66547;BME280;53400;50.364;14.874;2023-07-31T07:18:30;98427.34;;;17.57;88.54
66547;BME280;53400;50.364;14.874;2023-07-31T07:20:56;98420.78;;;17.77;88.35
66547;BME280;53400;50.364;14.874;2023-07-31T07:23:23;98422.31;;;17.50;88.56
66547;BME280;53400;50.364;14.874;2023-07-31T07:25:51;98425.81;;;17.51;88.67
66547;BME280;53400;50.364;14.874;2023-07-31T07:28:17;98433.94;;;17.51;87.31
66547;BME280;53400;50.364;14.874;2023-07-31T07:30:43;98413.47;;;17.45;88.25
66547;BME280;53400;50.364;14.874;2023-07-31T07:33:09;98411.94;;;17.38;86.48
66547;BME280;53400;50.364;14.874;2023-07-31T07:35:35;98417.63;;;17.37;88.24
66547;BME280;53400;50.364;14.874;2023-07-31T07:38:03;98425.47;;;17.19;86.55
66547;BME280;53400;50.364;14.874;2023-07-31T07:40:29;98421.94;;;17.19;86.20
66547;BME280;53400;50.364;14.874;2023-07-31T07:42:56;98425.25;;;17.16;85.73
66547;BME280;53400;50.364;14.874;2023-07-31T07:45:22;98416.78;;;17.23;86.61
66547;BME280;53400;50.364;14.874;2023-07-31T07:47:48;98418.53;;;17.13;86.31
66547;BME280;53400;50.364;14.874;2023-07-31T07:50:14;98416.53;;;17.00;88.83
66547;BME280;53400;50.364;14.874;2023-07-31T07:52:40;98410.00;;;16.82;87.56
66547;BME280;53400;50.364;14.874;2023-07-31T07:55:06;98410.91;;;16.96;87.21
66547;BME280;53400;50.364;14.874;2023-07-31T07:57:32;98405.81;;;17.14;86.20
66547;BME280;53400;50.364;14.874;2023-07-31T08:00:00;98408.56;;;17.09;86.86
66547;BME280;53400;50.364;14.874;2023-07-31T08:02:26;98403.22;;;17.04;87.35
66547;BME280;53400;50.364;14.874;2023-07-31T08:04:52;98401.53;;;16.89;86.45
66547;BME280;53400;50.364;14.874;2023-07-31T08:07:17;98408.78;;;16.93;87.14
66547;BME280;53400;50.364;14.874;2023-07-31T08:09:43;98405.88;;;17.09;86.10
66547;BME280;53400;50.364;14.874;2023-07-31T08:12:09;98418.66;;;17.03;87.13
66547;BME280;53400;50.364;14.874;2023-07-31T08:14:35;98420.19;;;17.28;86.56
66547;BME280;53400;50.364;14.874;2023-07-31T08:17:03;98423.78;;;17.24;86.26
66547;BME280;53400;50.364;14.874;2023-07-31T08:19:30;98423.72;;;17.29;86.67
66547;BME280;53400;50.364;14.874;2023-07-31T08:21:55;98430.56;;;17.40;87.01
66547;BME280;53400;50.364;14.874;2023-07-31T08:24:22;98424.41;;;17.34;85.31
66547;BME280;53400;50.364;14.874;2023-07-31T08:26:48;98433.03;;;17.55;86.88
66547;BME280;53400;50.364;14.874;2023-07-31T08:29:14;98428.94;;;17.58;84.91
66547;BME280;53400;50.364;14.874;2023-07-31T08:31:40;98424.28;;;17.45;85.44
66547;BME280;53400;50.364;14.874;2023-07-31T08:34:07;98435.34;;;17.29;86.99
66547;BME280;53400;50.364;14.874;2023-07-31T08:36:33;98438.25;;;17.52;86.96
66547;BME280;53400;50.364;14.874;2023-07-31T08:38:59;98442.91;;;17.65;86.73
66547;BME280;53400;50.364;14.874;2023-07-31T08:41:25;98445.50;;;17.89;86.81
66547;BME280;53400;50.364;14.874;2023-07-31T08:43:52;98437.56;;;18.11;88.22
66547;BME280;53400;50.364;14.874;2023-07-31T08:46:19;98431.16;;;18.35;85.37
66547;BME280;53400;50.364;14.874;2023-07-31T08:48:46;98439.50;;;18.39;87.07
66547;BME280;53400;50.364;14.874;2023-07-31T08:51:15;98443.19;;;18.15;88.39
66547;BME280;53400;50.364;14.874;2023-07-31T08:53:41;98442.25;;;18.20;87.32
66547;BME280;53400;50.364;14.874;2023-07-31T08:56:07;98448.41;;;18.25;86.59
66547;BME280;53400;50.364;14.874;2023-07-31T08:58:34;98442.91;;;18.44;88.52
66547;BME280;53400;50.364;14.874;2023-07-31T09:01:04;98434.72;;;18.17;86.25
66547;BME280;53400;50.364;14.874;2023-07-31T09:03:33;98435.25;;;18.19;86.67
66547;BME280;53400;50.364;14.874;2023-07-31T09:06:00;98435.44;;;18.22;84.86
66547;BME280;53400;50.364;14.874;2023-07-31T09:08:31;98421.41;;;18.20;86.02
66547;BME280;53400;50.364;14.874;2023-07-31T09:10:59;98421.22;;;18.30;85.17
66547;BME280;53400;50.364;14.874;2023-07-31T09:13:27;98417.88;;;18.20;85.41
66547;BME280;53400;50.364;14.874;2023-07-31T09:15:53;98421.19;;;18.17;83.42
66547;BME280;53400;50.364;14.874;2023-07-31T09:18:19;98424.19;;;18.15;84.58
66547;BME280;53400;50.364;14.874;2023-07-31T09:21:01;98423.44;;;18.42;85.27
66547;BME280;53400;50.364;14.874;2023-07-31T09:23:41;98418.41;;;18.49;84.69
66547;BME280;53400;50.364;14.874;2023-07-31T09:26:07;98401.94;;;18.46;85.99
66547;BME280;53400;50.364;14.874;2023-07-31T09:28:33;98410.06;;;18.32;85.17
66547;BME280;53400;50.364;14.874;2023-07-31T09:30:59;98412.59;;;18.42;86.14
66547;BME280;53400;50.364;14.874;2023-07-31T09:33:25;98410.47;;;18.67;86.46
66547;BME280;53400;50.364;14.874;2023-07-31T09:35:52;98405.72;;;18.86;83.32
66547;BME280;53400;50.364;14.874;2023-07-31T09:38:18;98420.03;;;18.78;82.97
66547;BME280;53400;50.364;14.874;2023-07-31T09:40:46;98409.75;;;18.61;82.67
66547;BME280;53400;50.364;14.874;2023-07-31T09:43:14;98395.66;;;18.87;83.82
66547;BME280;53400;50.364;14.874;2023-07-31T09:45:43;98391.88;;;18.88;79.42
66547;BME280;53400;50.364;14.874;2023-07-31T09:48:10;98395.28;;;18.93;80.82
66547;BME280;53400;50.364;14.874;2023-07-31T09:50:37;98390.56;;;18.99;78.59
66547;BME280;53400;50.364;14.874;2023-07-31T09:53:04;98388.03;;;18.89;79.79
66547;BME280;53400;50.364;14.874;2023-07-31T09:55:31;98384.53;;;18.74;80.66
66547;BME280;53400;50.364;14.874;2023-07-31T09:58:04;98373.69;;;19.11;80.47
66547;BME280;53400;50.364;14.874;2023-07-31T10:00:31;98388.09;;;19.34;80.36
66547;BME280;53400;50.364;14.874;2023-07-31T10:02:58;98385.44;;;19.20;80.01
66547;BME280;53400;50.364;14.874;2023-07-31T10:05:28;98388.16;;;19.20;77.49
66547;BME280;53400;50.364;14.874;2023-07-31T10:07:57;98387.28;;;19.11;76.67
66547;BME280;53400;50.364;14.874;2023-07-31T10:10:23;98379.69;;;18.71;78.98
66547;BME280;53400;50.364;14.874;2023-07-31T10:12:51;98380.31;;;18.82;77.94
66547;BME280;53400;50.364;14.874;2023-07-31T10:15:21;98383.19;;;18.99;79.58
66547;BME280;53400;50.364;14.874;2023-07-31T10:17:49;98374.09;;;18.82;78.16
66547;BME280;53400;50.364;14.874;2023-07-31T10:20:15;98366.16;;;19.08;78.04
66547;BME280;53400;50.364;14.874;2023-07-31T10:22:45;98370.59;;;19.17;77.91
66547;BME280;53400;50.364;14.874;2023-07-31T10:25:11;98358.47;;;19.46;78.15
66547;BME280;53400;50.364;14.874;2023-07-31T10:27:39;98355.28;;;19.66;77.71
66547;BME280;53400;50.364;14.874;2023-07-31T10:30:07;98354.00;;;19.95;77.49
66547;BME280;53400;50.364;14.874;2023-07-31T10:32:36;98349.75;;;19.80;76.35
66547;BME280;53400;50.364;14.874;2023-07-31T10:35:04;98355.78;;;20.00;74.90
66547;BME280;53400;50.364;14.874;2023-07-31T10:37:37;98345.38;;;20.02;75.80
66547;BME280;53400;50.364;14.874;2023-07-31T10:40:05;98337.88;;;20.07;75.28
66547;BME280;53400;50.364;14.874;2023-07-31T10:42:33;98330.47;;;19.90;75.50
66547;BME280;53400;50.364;14.874;2023-07-31T10:45:01;98329.03;;;19.93;75.00
66547;BME280;53400;50.364;14.874;2023-07-31T10:47:28;98334.75;;;20.23;75.34
66547;BME280;53400;50.364;14.874;2023-07-31T10:50:13;98326.84;;;20.52;73.03
66547;BME280;53400;50.364;14.874;2023-07-31T10:52:40;98323.53;;;20.73;73.77
66547;BME280;53400;50.364;14.874;2023-07-31T10:55:16;98316.31;;;20.68;74.12
66547;BME280;53400;50.364;14.874;2023-07-31T10:57:48;98328.50;;;20.88;74.13
66547;BME280;53400;50.364;14.874;2023-07-31T11:00:21;98312.97;;;20.97;72.29
66547;BME280;53400;50.364;14.874;2023-07-31T11:03:02;98310.06;;;21.02;71.64
66547;BME280;53400;50.364;14.874;2023-07-31T11:05:51;98312.16;;;20.88;72.08
66547;BME280;53400;50.364;14.874;2023-07-31T11:08:21;98306.38;;;21.24;71.94
66547;BME280;53400;50.364;14.874;2023-07-31T11:10:48;98315.81;;;21.27;73.19
66547;BME280;53400;50.364;14.874;2023-07-31T11:13:15;98300.28;;;21.45;71.81
66547;BME280;53400;50.364;14.874;2023-07-31T11:15:41;98291.78;;;21.46;70.78
66547;BME280;53400;50.364;14.874;2023-07-31T11:18:07;98295.31;;;21.47;70.88
66547;BME280;53400;50.364;14.874;2023-07-31T11:20:35;98284.16;;;21.69;70.77
66547;BME280;53400;50.364;14.874;2023-07-31T11:23:04;98287.53;;;21.66;70.35
66547;BME280;53400;50.364;14.874;2023-07-31T11:25:31;98295.31;;;21.47;70.61
66547;BME280;53400;50.364;14.874;2023-07-31T11:27:58;98283.25;;;21.57;71.02
66547;BME280;53400;50.364;14.874;2023-07-31T11:30:28;98281.41;;;21.78;70.02
66547;BME280;53400;50.364;14.874;2023-07-31T11:32:55;98277.47;;;21.67;69.45
66547;BME280;53400;50.364;14.874;2023-07-31T11:35:21;98272.28;;;21.74;70.98
66547;BME280;53400;50.364;14.874;2023-07-31T11:37:48;98279.81;;;21.77;71.07
66547;BME280;53400;50.364;14.874;2023-07-31T11:40:16;98280.78;;;22.19;71.06
66547;BME280;53400;50.364;14.874;2023-07-31T11:42:42;98267.78;;;22.46;69.62
66547;BME280;53400;50.364;14.874;2023-07-31T11:45:08;98267.69;;;22.55;69.63
66547;BME280;53400;50.364;14.874;2023-07-31T11:47:36;98266.56;;;22.77;68.23
66547;BME280;53400;50.364;14.874;2023-07-31T11:50:04;98265.13;;;23.12;66.30
66547;BME280;53400;50.364;14.874;2023-07-31T11:52:32;98267.66;;;23.51;66.39
66547;BME280;53400;50.364;14.874;2023-07-31T11:54:59;98261.69;;;23.03;65.18
66547;BME280;53400;50.364;14.874;2023-07-31T11:57:28;98256.63;;;23.14;65.31
66547;BME280;53400;50.364;14.874;2023-07-31T11:59:55;98260.28;;;23.18;63.40
66547;BME280;53400;50.364;14.874;2023-07-31T12:02:22;98264.06;;;23.26;65.98
66547;BME280;53400;50.364;14.874;2023-07-31T12:04:48;98262.78;;;22.69;66.15
66547;BME280;53400;50.364;14.874;2023-07-31T12:07:14;98259.34;;;22.93;67.26
66547;BME280;53400;50.364;14.874;2023-07-31T12:09:50;98239.53;;;22.84;64.65
66547;BME280;53400;50.364;14.874;2023-07-31T12:12:19;98245.84;;;22.76;66.08
66547;BME280;53400;50.364;14.874;2023-07-31T12:14:47;98252.63;;;22.90;65.25
66547;BME280;53400;50.364;14.874;2023-07-31T12:17:14;98237.22;;;22.95;63.56
66547;BME280;53400;50.364;14.874;2023-07-31T12:19:40;98228.81;;;22.58;64.71
66547;BME280;53400;50.364;14.874;2023-07-31T12:22:11;98228.81;;;22.79;65.61
66547;BME280;53400;50.364;14.874;2023-07-31T12:24:39;98219.16;;;22.60;63.61
66547;BME280;53400;50.364;14.874;2023-07-31T12:27:09;98218.84;;;22.62;64.46
66547;BME280;53400;50.364;14.874;2023-07-31T12:29:38;98217.22;;;22.61;65.04
66547;BME280;53400;50.364;14.874;2023-07-31T12:32:20;98209.16;;;22.85;63.67
66547;BME280;53400;50.364;14.874;2023-07-31T12:34:47;98213.69;;;23.02;61.85
66547;BME280;53400;50.364;14.874;2023-07-31T12:37:13;98204.75;;;23.26;64.66
66547;BME280;53400;50.364;14.874;2023-07-31T12:39:39;98203.13;;;23.01;60.61
66547;BME280;53400;50.364;14.874;2023-07-31T12:42:06;98201.22;;;22.93;62.50
66547;BME280;53400;50.364;14.874;2023-07-31T12:44:32;98198.16;;;22.94;64.60